createdAt,value
2019-03-23T00:00:29.757Z,82.31
2019-03-23T00:02:58.207Z,82.24
2019-03-23T00:05:26.928Z,82.06
2019-03-23T00:07:55.521Z,81.89
2019-03-23T00:10:23.819Z,82.01
2019-03-23T00:12:52.123Z,82.02
2019-03-23T00:15:20.487Z,82.15
2019-03-23T00:17:48.807Z,82.15
2019-03-23T00:20:17.102Z,82.18
2019-03-23T00:22:45.689Z,82.32
2019-03-23T00:25:14.272Z,82.38
2019-03-23T00:27:42.598Z,82.42
2019-03-23T00:30:13.037Z,82.55
2019-03-23T00:32:41.756Z,82.62
2019-03-23T00:35:10.157Z,82.71
2019-03-23T00:37:38.442Z,82.99
2019-03-23T00:40:08.593Z,83.01
2019-03-23T00:42:38.211Z,82.80
2019-03-23T00:45:07.715Z,82.84
2019-03-23T00:47:36.343Z,82.91
2019-03-23T00:50:06.398Z,83.16
2019-03-23T00:52:34.698Z,83.12
2019-03-23T00:55:03.014Z,83.17
2019-03-23T00:57:31.332Z,83.04
2019-03-23T00:59:59.961Z,82.78
2019-03-23T01:02:28.561Z,82.59
2019-03-23T01:04:57.843Z,82.05
2019-03-23T01:07:26.129Z,81.36
2019-03-23T01:09:54.448Z,80.86
2019-03-23T01:12:23.106Z,80.32
2019-03-23T01:14:51.404Z,79.55
2019-03-23T01:17:19.744Z,79.26
2019-03-23T01:19:48.346Z,79.00
2019-03-23T01:22:16.657Z,79.01
2019-03-23T01:24:44.950Z,78.94
2019-03-23T01:27:13.255Z,78.88
2019-03-23T01:29:41.548Z,78.90
2019-03-23T01:32:09.881Z,78.91
2019-03-23T01:34:38.183Z,79.00
2019-03-23T01:37:06.510Z,78.97
2019-03-23T01:39:34.814Z,78.94
2019-03-23T01:42:03.483Z,78.99
2019-03-23T01:44:32.118Z,78.98
2019-03-23T01:47:00.412Z,79.05
2019-03-23T01:49:28.731Z,79.18
2019-03-23T01:51:57.353Z,79.47
2019-03-23T01:54:25.670Z,79.62
2019-03-23T01:56:53.989Z,79.77
2019-03-23T01:59:22.338Z,79.85
2019-03-23T02:01:50.645Z,80.16
2019-03-23T02:04:18.964Z,80.39
2019-03-23T02:06:47.276Z,80.57
2019-03-23T02:09:15.597Z,80.66
2019-03-23T02:11:43.886Z,80.82
2019-03-23T02:14:12.196Z,81.15
2019-03-23T02:16:40.492Z,81.21
2019-03-23T02:19:08.820Z,81.53
2019-03-23T02:21:37.385Z,81.77
2019-03-23T02:24:05.713Z,82.14
2019-03-23T02:26:34.042Z,82.63
2019-03-23T02:29:02.364Z,82.91
2019-03-23T02:31:31.015Z,83.01
2019-03-23T02:33:59.387Z,83.20
2019-03-23T02:36:27.773Z,83.34
2019-03-23T02:38:56.104Z,83.61
2019-03-23T02:41:24.406Z,83.66
2019-03-23T02:43:52.716Z,83.86
2019-03-23T02:46:21.028Z,83.87
2019-03-23T02:48:49.341Z,84.05
2019-03-23T02:51:17.655Z,84.09
2019-03-23T02:53:45.992Z,84.37
2019-03-23T02:56:14.354Z,84.57
2019-03-23T02:58:42.664Z,84.88
2019-03-23T03:01:10.968Z,85.28
2019-03-23T03:03:39.318Z,85.71
2019-03-23T03:06:07.603Z,86.10
2019-03-23T03:08:35.955Z,85.75
2019-03-23T03:11:04.582Z,86.07
2019-03-23T03:13:32.879Z,86.67
2019-03-23T03:16:01.199Z,86.83
2019-03-23T03:18:29.484Z,86.64
2019-03-23T03:20:57.815Z,86.60
2019-03-23T03:23:26.129Z,86.83
2019-03-23T03:25:54.465Z,86.89
2019-03-23T03:28:22.749Z,86.95
2019-03-23T03:30:51.131Z,86.83
2019-03-23T03:33:19.475Z,86.52
2019-03-23T03:35:47.778Z,86.73
2019-03-23T03:38:16.152Z,86.89
2019-03-23T03:40:44.530Z,86.76
2019-03-23T03:43:12.837Z,86.67
2019-03-23T03:45:41.446Z,86.68
2019-03-23T03:48:09.771Z,86.52
2019-03-23T03:50:38.079Z,86.44
2019-03-23T03:53:06.385Z,86.71
2019-03-23T03:55:34.704Z,86.84
2019-03-23T03:58:03.026Z,86.73
2019-03-23T04:00:31.622Z,86.32
2019-03-23T04:02:59.937Z,86.70
2019-03-23T04:05:28.233Z,86.14
2019-03-23T04:08:09.847Z,86.27
2019-03-23T04:10:26.613Z,86.63
2019-03-23T04:12:54.932Z,86.66
2019-03-23T04:15:23.266Z,86.58
2019-03-23T04:17:51.565Z,86.47
2019-03-23T04:20:19.901Z,86.22
2019-03-23T04:22:48.220Z,86.00
2019-03-23T04:25:16.540Z,85.86
2019-03-23T04:27:44.851Z,85.99
2019-03-23T04:30:13.450Z,85.91
2019-03-23T04:32:41.781Z,85.60
2019-03-23T04:35:10.331Z,85.94
2019-03-23T04:37:38.660Z,86.18
2019-03-23T04:40:09.816Z,86.01
2019-03-23T04:42:38.447Z,86.05
2019-03-23T04:45:08.538Z,86.15
2019-03-23T04:47:37.165Z,86.05
2019-03-23T04:50:08.660Z,85.96
2019-03-23T04:52:36.972Z,85.62
2019-03-23T04:55:11.105Z,84.69
2019-03-23T04:57:39.949Z,85.39
2019-03-23T05:00:10.898Z,85.45
2019-03-23T05:02:39.520Z,85.29
2019-03-23T05:05:07.826Z,85.43
2019-03-23T05:07:36.132Z,85.25
2019-03-23T05:10:05.765Z,85.07
2019-03-23T05:12:34.349Z,85.03
2019-03-23T05:15:02.644Z,85.17
2019-03-23T05:17:30.965Z,85.10
2019-03-23T05:19:59.585Z,85.14
2019-03-23T05:22:27.927Z,85.12
2019-03-23T05:24:56.227Z,84.92
2019-03-23T05:27:24.550Z,84.76
2019-03-23T05:29:52.856Z,84.79
2019-03-23T05:32:21.205Z,84.79
2019-03-23T05:34:49.584Z,84.76
2019-03-23T05:37:17.921Z,84.80
2019-03-23T05:39:46.220Z,84.61
2019-03-23T05:42:14.529Z,84.58
2019-03-23T05:44:42.925Z,84.58
2019-03-23T05:47:11.272Z,84.47
2019-03-23T05:49:39.593Z,84.37
2019-03-23T05:52:07.898Z,84.42
2019-03-23T05:54:36.340Z,84.36
2019-03-23T05:57:04.961Z,84.35
2019-03-23T05:59:33.394Z,83.70
2019-03-23T06:02:01.765Z,84.02
2019-03-23T06:04:30.110Z,83.87
2019-03-23T06:06:58.418Z,84.08
2019-03-23T06:09:26.737Z,83.93
2019-03-23T06:11:55.047Z,83.86
2019-03-23T06:14:23.361Z,83.88
2019-03-23T06:16:51.669Z,83.83
2019-03-23T06:19:19.970Z,83.68
2019-03-23T06:21:48.280Z,83.37
2019-03-23T06:24:16.596Z,83.28
2019-03-23T06:26:44.916Z,83.39
2019-03-23T06:29:13.233Z,83.62
2019-03-23T06:31:41.537Z,83.62
2019-03-23T06:34:09.831Z,83.46
2019-03-23T06:36:38.157Z,83.31
2019-03-23T06:39:06.921Z,83.08
2019-03-23T06:41:35.287Z,82.90
2019-03-23T06:44:03.540Z,82.84
2019-03-23T06:46:31.879Z,83.05
2019-03-23T06:49:00.175Z,82.62
2019-03-23T06:51:28.494Z,82.71
2019-03-23T06:53:56.881Z,83.03
2019-03-23T06:56:25.204Z,83.10
2019-03-23T06:58:53.567Z,82.87
2019-03-23T07:01:22.208Z,82.73
2019-03-23T07:03:50.524Z,82.65
2019-03-23T07:06:18.838Z,82.41
2019-03-23T07:08:47.134Z,82.52
2019-03-23T07:11:15.459Z,82.66
2019-03-23T07:13:43.765Z,82.61
2019-03-23T07:16:12.087Z,82.61
2019-03-23T07:18:40.396Z,82.56
2019-03-23T07:21:09.014Z,82.37
2019-03-23T07:23:37.333Z,82.26
2019-03-23T07:26:05.640Z,82.29
2019-03-23T07:28:33.952Z,82.16
2019-03-23T07:31:02.533Z,82.08
2019-03-23T07:33:30.866Z,82.19
2019-03-23T07:35:59.174Z,81.93
2019-03-23T07:38:27.479Z,82.05
2019-03-23T07:40:55.874Z,82.02
2019-03-23T07:43:24.192Z,81.97
2019-03-23T07:45:52.487Z,81.89
2019-03-23T07:48:20.808Z,81.72
2019-03-23T07:50:49.098Z,81.51
2019-03-23T07:53:17.419Z,81.44
2019-03-23T07:55:45.734Z,81.36
2019-03-23T07:58:14.385Z,81.45
2019-03-23T08:00:42.673Z,81.35
2019-03-23T08:03:11.351Z,80.98
2019-03-23T08:05:39.683Z,80.94
2019-03-23T08:08:08.017Z,80.60
2019-03-23T08:10:36.584Z,80.29
2019-03-23T08:13:05.166Z,80.27
2019-03-23T08:15:33.643Z,79.89
2019-03-23T08:18:02.012Z,79.89
2019-03-23T08:20:30.325Z,79.78
2019-03-23T08:22:58.631Z,79.62
2019-03-23T08:25:26.963Z,78.96
2019-03-23T08:27:55.272Z,78.61
2019-03-23T08:30:23.628Z,78.41
2019-03-23T08:32:52.042Z,77.77
2019-03-23T08:35:20.372Z,77.42
2019-03-23T08:37:48.672Z,77.54
2019-03-23T08:40:16.985Z,76.86
2019-03-23T08:42:45.361Z,76.85
2019-03-23T08:45:13.826Z,76.86
2019-03-23T08:47:42.155Z,76.78
2019-03-23T08:50:10.743Z,76.44
2019-03-23T08:52:39.064Z,76.41
2019-03-23T08:55:07.394Z,75.83
2019-03-23T08:57:35.712Z,75.93
2019-03-23T09:00:06.220Z,76.12
2019-03-23T09:02:34.555Z,76.11
2019-03-23T09:05:02.850Z,76.24
2019-03-23T09:07:31.187Z,76.13
2019-03-23T09:09:59.666Z,76.00
2019-03-23T09:12:28.040Z,75.07
2019-03-23T09:14:56.351Z,75.38
2019-03-23T09:17:24.979Z,75.49
2019-03-23T09:19:53.311Z,75.42
2019-03-23T09:22:21.619Z,75.19
2019-03-23T09:24:49.937Z,74.80
2019-03-23T09:27:18.233Z,74.70
2019-03-23T09:29:46.857Z,74.69
2019-03-23T09:32:15.436Z,74.37
2019-03-23T09:34:43.739Z,74.08
2019-03-23T09:37:12.133Z,73.68
2019-03-23T09:39:40.816Z,72.96
2019-03-23T09:42:09.315Z,72.83
2019-03-23T09:44:37.712Z,72.63
2019-03-23T09:47:06.044Z,72.46
2019-03-23T09:49:34.341Z,71.90
2019-03-23T09:52:02.681Z,71.37
2019-03-23T09:54:30.994Z,71.04
2019-03-23T09:56:59.666Z,70.59
2019-03-23T09:59:28.057Z,70.51
2019-03-23T10:01:56.393Z,69.63
2019-03-23T10:04:24.691Z,69.15
2019-03-23T10:06:52.994Z,69.10
2019-03-23T10:09:21.623Z,68.79
2019-03-23T10:11:50.206Z,68.46
2019-03-23T10:14:18.576Z,68.46
2019-03-23T10:16:47.123Z,68.52
2019-03-23T10:19:15.434Z,68.04
2019-03-23T10:21:43.732Z,68.03
2019-03-23T10:24:12.073Z,68.46
2019-03-23T10:26:40.379Z,68.40
2019-03-23T10:29:08.720Z,68.17
2019-03-23T10:31:37.018Z,68.16
2019-03-23T10:34:05.348Z,68.14
2019-03-23T10:36:33.733Z,67.80
2019-03-23T10:39:02.300Z,67.94
2019-03-23T10:41:30.628Z,67.52
2019-03-23T10:43:58.956Z,66.46
2019-03-23T10:46:27.521Z,65.79
2019-03-23T10:48:55.850Z,65.55
2019-03-23T10:51:24.157Z,64.88
2019-03-23T10:53:52.484Z,64.93
2019-03-23T10:56:20.775Z,64.43
2019-03-23T10:58:49.091Z,63.87
2019-03-23T11:01:17.385Z,63.12
2019-03-23T11:03:45.696Z,62.92
2019-03-23T11:06:14.018Z,62.58
2019-03-23T11:08:42.643Z,62.34
2019-03-23T11:11:11.295Z,62.42
2019-03-23T11:13:39.713Z,61.88
2019-03-23T11:16:08.377Z,61.63
2019-03-23T11:18:37.882Z,61.42
2019-03-23T11:21:06.267Z,60.45
2019-03-23T11:23:34.577Z,60.62
2019-03-23T11:26:02.900Z,59.88
2019-03-23T11:28:31.207Z,61.03
2019-03-23T11:31:00.168Z,60.48
2019-03-23T11:33:28.472Z,60.63
2019-03-23T11:35:58.050Z,60.74
2019-03-23T11:38:26.849Z,61.00
2019-03-23T11:40:55.492Z,60.87
2019-03-23T11:43:23.759Z,60.84
2019-03-23T11:45:52.052Z,60.89
2019-03-23T11:48:20.371Z,61.01
2019-03-23T11:50:48.677Z,60.97
2019-03-23T11:53:17.018Z,61.38
2019-03-23T11:55:45.332Z,61.45
2019-03-23T11:58:13.973Z,61.71
2019-03-23T12:00:42.397Z,62.04
2019-03-23T12:03:10.753Z,62.57
2019-03-23T12:05:39.052Z,61.73
2019-03-23T12:08:07.383Z,62.32
2019-03-23T12:10:35.677Z,62.33
2019-03-23T12:13:04.454Z,62.62
2019-03-23T12:15:32.766Z,62.04
2019-03-23T12:18:01.079Z,60.95
2019-03-23T12:20:29.420Z,61.17
2019-03-23T12:22:57.707Z,60.48
2019-03-23T12:25:26.042Z,59.99
2019-03-23T12:27:54.346Z,60.58
2019-03-23T12:30:23.056Z,59.75
2019-03-23T12:32:51.355Z,59.27
2019-03-23T12:35:19.695Z,58.78
2019-03-23T12:37:48.254Z,58.85
2019-03-23T12:40:16.573Z,59.13
2019-03-23T12:42:44.880Z,57.65
2019-03-23T12:45:13.381Z,59.22
2019-03-23T12:47:41.997Z,58.73
2019-03-23T12:50:11.375Z,58.13
2019-03-23T12:52:39.662Z,58.71
2019-03-23T12:55:08.524Z,59.19
2019-03-23T12:57:36.836Z,59.38
2019-03-23T13:00:08.665Z,59.49
2019-03-23T13:02:36.986Z,59.56
2019-03-23T13:05:06.734Z,59.15
2019-03-23T13:07:35.044Z,59.24
2019-03-23T13:10:04.209Z,58.55
2019-03-23T13:12:32.527Z,58.59
2019-03-23T13:15:00.833Z,58.11
2019-03-23T13:17:29.148Z,58.16
2019-03-23T13:19:57.531Z,58.45
2019-03-23T13:22:25.856Z,58.41
2019-03-23T13:24:54.238Z,57.46
2019-03-23T13:27:22.565Z,57.28
2019-03-23T13:29:50.868Z,57.59
2019-03-23T13:32:19.196Z,58.18
2019-03-23T13:34:47.496Z,57.89
2019-03-23T13:37:15.806Z,57.84
2019-03-23T13:39:44.208Z,58.00
2019-03-23T13:42:12.565Z,58.11
2019-03-23T13:44:40.876Z,57.38
2019-03-23T13:47:09.171Z,58.01
2019-03-23T13:49:37.767Z,58.24
2019-03-23T13:52:06.077Z,59.01
2019-03-23T13:54:34.393Z,59.66
2019-03-23T13:57:02.699Z,59.85
2019-03-23T13:59:31.112Z,59.40
2019-03-23T14:01:59.767Z,59.28
2019-03-23T14:04:28.070Z,59.65
2019-03-23T14:06:56.726Z,59.64
2019-03-23T14:09:25.034Z,59.31
2019-03-23T14:11:55.292Z,60.15
2019-03-23T14:14:23.464Z,60.37
2019-03-23T14:16:52.092Z,61.12
2019-03-23T14:19:20.404Z,61.81
2019-03-23T14:21:48.730Z,61.68
2019-03-23T14:24:17.041Z,61.64
2019-03-23T14:26:45.378Z,61.45
2019-03-23T14:29:13.686Z,62.21
2019-03-23T14:31:42.023Z,62.46
2019-03-23T14:34:10.333Z,62.11
2019-03-23T14:36:38.658Z,61.92
2019-03-23T14:39:07.336Z,62.41
2019-03-23T14:41:35.979Z,62.39
2019-03-23T14:44:04.283Z,62.72
2019-03-23T14:46:32.618Z,63.61
2019-03-23T14:49:01.899Z,63.99
2019-03-23T14:51:30.402Z,64.10
2019-03-23T14:53:59.001Z,64.26
2019-03-23T14:56:31.646Z,64.30
2019-03-23T14:58:57.913Z,63.92
2019-03-23T15:01:26.584Z,64.42
2019-03-23T15:03:55.216Z,64.69
2019-03-23T15:06:23.522Z,64.83
2019-03-23T15:08:51.855Z,65.16
2019-03-23T15:11:20.243Z,65.32
2019-03-23T15:13:48.545Z,65.30
2019-03-23T15:16:16.877Z,65.20
2019-03-23T15:18:45.181Z,65.64
2019-03-23T15:21:13.496Z,66.01
2019-03-23T15:23:42.060Z,66.57
2019-03-23T15:26:10.683Z,66.47
2019-03-23T15:28:39.008Z,67.00
2019-03-23T15:31:07.318Z,67.03
2019-03-23T15:33:35.632Z,67.32
2019-03-23T15:36:03.953Z,67.75
2019-03-23T15:38:32.575Z,67.92
2019-03-23T15:41:00.920Z,68.31
2019-03-23T15:43:29.264Z,68.23
2019-03-23T15:45:57.571Z,68.27
2019-03-23T15:48:25.892Z,67.19
2019-03-23T15:50:54.193Z,67.75
2019-03-23T15:53:22.524Z,68.55
2019-03-23T15:55:50.826Z,68.94
2019-03-23T15:58:19.134Z,69.51
2019-03-23T16:00:47.443Z,68.78
2019-03-23T16:03:15.751Z,68.77
2019-03-23T16:05:44.047Z,68.98
2019-03-23T16:08:12.362Z,69.26
2019-03-23T16:10:41.014Z,69.15
2019-03-23T16:13:09.345Z,69.24
2019-03-23T16:15:37.943Z,69.15
2019-03-23T16:18:06.277Z,69.56
2019-03-23T16:20:34.911Z,69.79
2019-03-23T16:23:03.601Z,69.77
2019-03-23T16:25:31.897Z,70.28
2019-03-23T16:28:00.579Z,70.31
2019-03-23T16:30:30.426Z,70.77
2019-03-23T16:32:58.938Z,70.77
2019-03-23T16:35:27.268Z,70.78
2019-03-23T16:37:55.599Z,71.13
2019-03-23T16:40:23.907Z,71.34
2019-03-23T16:42:52.434Z,71.67
2019-03-23T16:45:20.981Z,71.81
2019-03-23T16:47:49.327Z,72.06
2019-03-23T16:50:17.655Z,72.44
2019-03-23T16:52:45.964Z,72.33
2019-03-23T16:55:14.484Z,72.57
2019-03-23T16:57:42.780Z,72.91
2019-03-23T17:00:15.442Z,73.22
2019-03-23T17:02:44.008Z,73.50
2019-03-23T17:05:12.662Z,73.92
2019-03-23T17:07:40.970Z,73.85
2019-03-23T17:10:09.442Z,74.05
2019-03-23T17:12:37.737Z,74.20
2019-03-23T17:15:07.835Z,74.45
2019-03-23T17:17:36.848Z,74.78
2019-03-23T17:20:05.736Z,74.97
2019-03-23T17:22:34.040Z,75.00
2019-03-23T17:25:02.522Z,75.27
2019-03-23T17:27:30.820Z,75.74
2019-03-23T17:29:59.195Z,76.06
2019-03-23T17:32:27.495Z,76.30
2019-03-23T17:34:55.816Z,76.49
2019-03-23T17:37:24.476Z,76.70
2019-03-23T17:39:52.888Z,76.43
2019-03-23T17:42:21.217Z,76.84
2019-03-23T17:44:49.520Z,77.10
2019-03-23T17:47:17.832Z,77.33
2019-03-23T17:49:46.136Z,77.37
2019-03-23T17:52:14.459Z,77.49
2019-03-23T17:54:42.757Z,77.96
2019-03-23T17:57:11.056Z,78.80
2019-03-23T17:59:39.379Z,79.18
2019-03-23T18:02:07.681Z,79.29
2019-03-23T18:04:36.028Z,79.78
2019-03-23T18:07:04.322Z,79.89
2019-03-23T18:09:32.647Z,80.15
2019-03-23T18:12:00.959Z,80.66
2019-03-23T18:14:29.280Z,81.34
2019-03-23T18:16:57.593Z,81.33
2019-03-23T18:19:26.211Z,81.71
2019-03-23T18:21:54.513Z,82.08
2019-03-23T18:24:22.831Z,82.27
2019-03-23T18:26:51.159Z,83.04
2019-03-23T18:29:19.474Z,83.68
2019-03-23T18:31:48.087Z,84.43
2019-03-23T18:34:16.420Z,84.70
2019-03-23T18:36:44.733Z,85.13
2019-03-23T18:39:13.066Z,85.28
2019-03-23T18:41:41.378Z,85.55
2019-03-23T18:44:16.223Z,85.79
2019-03-23T18:46:40.208Z,85.89
2019-03-23T18:49:08.502Z,85.94
2019-03-23T18:51:37.119Z,85.92
2019-03-23T18:54:05.429Z,86.09
2019-03-23T18:56:33.971Z,86.15
2019-03-23T18:59:02.275Z,86.31
2019-03-23T19:01:30.890Z,86.50
2019-03-23T19:03:59.293Z,86.80
2019-03-23T19:06:27.617Z,86.88
2019-03-23T19:08:55.908Z,87.02
2019-03-23T19:11:24.503Z,87.02
2019-03-23T19:13:52.811Z,86.78
2019-03-23T19:16:21.113Z,87.05
2019-03-23T19:18:49.441Z,87.23
2019-03-23T19:21:18.131Z,87.13
2019-03-23T19:23:46.455Z,87.23
2019-03-23T19:26:14.756Z,87.45
2019-03-23T19:28:43.066Z,87.59
2019-03-23T19:31:11.381Z,87.80
2019-03-23T19:33:39.705Z,87.72
2019-03-23T19:36:08.300Z,87.85
2019-03-23T19:38:36.730Z,88.06
2019-03-23T19:41:05.662Z,88.06
2019-03-23T19:43:34.055Z,88.11
2019-03-23T19:46:02.383Z,88.22
2019-03-23T19:48:30.690Z,88.33
2019-03-23T19:50:59.020Z,88.39
2019-03-23T19:53:27.352Z,88.30
2019-03-23T19:55:55.660Z,88.27
2019-03-23T19:58:23.962Z,88.44
2019-03-23T20:00:52.296Z,88.67
2019-03-23T20:03:20.862Z,88.54
2019-03-23T20:05:49.249Z,88.61
2019-03-23T20:08:17.558Z,88.61
2019-03-23T20:10:45.890Z,88.60
2019-03-23T20:13:14.188Z,88.54
2019-03-23T20:15:42.521Z,88.05
2019-03-23T20:18:10.824Z,88.04
2019-03-23T20:20:39.140Z,86.63
2019-03-23T20:23:07.461Z,86.83
2019-03-23T20:25:35.778Z,85.84
2019-03-23T20:28:04.075Z,85.99
2019-03-23T20:30:32.420Z,85.88
2019-03-23T20:33:00.741Z,85.89
2019-03-23T20:35:29.032Z,84.92
2019-03-23T20:37:57.349Z,84.78
2019-03-23T20:40:25.659Z,84.79
2019-03-23T20:42:53.984Z,84.29
2019-03-23T20:45:27.556Z,83.75
2019-03-23T20:47:56.200Z,83.26
2019-03-23T20:50:24.502Z,82.89
2019-03-23T20:52:52.829Z,82.63
2019-03-23T20:55:28.522Z,82.53
2019-03-23T20:57:56.867Z,81.72
2019-03-23T21:00:25.181Z,81.01
2019-03-23T21:02:53.510Z,81.19
2019-03-23T21:05:33.200Z,80.43
2019-03-23T21:07:52.110Z,79.80
2019-03-23T21:10:21.360Z,79.26
2019-03-23T21:12:49.667Z,78.73
2019-03-23T21:15:17.996Z,78.79
2019-03-23T21:17:51.339Z,78.71
2019-03-23T21:20:16.365Z,78.64
2019-03-23T21:22:44.688Z,78.64
2019-03-23T21:25:13.556Z,78.32
2019-03-23T21:27:41.857Z,78.32
2019-03-23T21:30:13.183Z,78.16
2019-03-23T21:32:41.746Z,77.94
2019-03-23T21:35:10.324Z,77.51
2019-03-23T21:37:38.816Z,77.52
2019-03-23T21:40:07.604Z,77.87
2019-03-23T21:42:35.941Z,77.49
2019-03-23T21:45:05.782Z,77.81
2019-03-23T21:47:34.102Z,77.69
2019-03-23T21:50:02.409Z,77.87
2019-03-23T21:52:30.986Z,77.66
2019-03-23T21:54:59.290Z,77.40
2019-03-23T21:57:27.621Z,77.73
2019-03-23T21:59:55.991Z,77.83
2019-03-23T22:02:24.315Z,77.85
2019-03-23T22:04:52.609Z,77.94
2019-03-23T22:07:21.213Z,77.99
2019-03-23T22:09:49.515Z,78.03
2019-03-23T22:12:17.842Z,78.07
2019-03-23T22:14:46.445Z,77.96
2019-03-23T22:17:14.747Z,77.92
2019-03-23T22:19:43.051Z,77.99
2019-03-23T22:22:11.688Z,78.01
2019-03-23T22:24:40.005Z,78.23
2019-03-23T22:27:08.290Z,78.27
2019-03-23T22:29:36.919Z,78.48
2019-03-23T22:32:05.268Z,78.76
2019-03-23T22:34:33.874Z,78.89
2019-03-23T22:37:02.170Z,78.98
2019-03-23T22:39:30.527Z,79.10
2019-03-23T22:41:59.214Z,79.07
2019-03-23T22:44:27.535Z,78.98
2019-03-23T22:46:55.819Z,79.21
2019-03-23T22:49:24.449Z,79.35
2019-03-23T22:51:52.773Z,79.61
2019-03-23T22:54:21.421Z,79.73
2019-03-23T22:56:49.997Z,79.71
2019-03-23T22:59:18.282Z,79.89
2019-03-23T23:01:46.956Z,79.93
2019-03-23T23:04:15.429Z,80.10
2019-03-23T23:06:44.034Z,80.49
2019-03-23T23:09:12.313Z,80.27
2019-03-23T23:11:40.636Z,80.44
2019-03-23T23:14:08.929Z,80.64
2019-03-23T23:16:37.206Z,80.77
2019-03-23T23:19:05.555Z,80.92
2019-03-23T23:21:33.852Z,81.16
2019-03-23T23:24:02.189Z,80.97
2019-03-23T23:26:30.481Z,81.62
2019-03-23T23:28:58.798Z,81.83
2019-03-23T23:31:27.084Z,82.08
2019-03-23T23:33:55.390Z,82.06
2019-03-23T23:36:23.685Z,82.12
2019-03-23T23:38:52.636Z,82.40
2019-03-23T23:41:21.019Z,82.50
2019-03-23T23:43:49.339Z,82.53
2019-03-23T23:46:17.662Z,82.49
2019-03-23T23:48:51.302Z,82.39
2019-03-23T23:51:16.013Z,82.51
2019-03-23T23:53:44.314Z,82.58
2019-03-23T23:56:12.617Z,82.58
2019-03-23T23:58:40.914Z,82.53
